Latest Weather Observations for Sydney Olympic Park

IDN60901

Issued at 9:51 pm EST Sunday 30 August 2015 (issued every 10 minutes, with the page automatically refreshed every 10 minutes)

About weather observations | Map of Sydney area stations | Latest observations for Sydney area | Other Formats
Station Details ID: 066212 Name: SYDNEY OLYMPIC PARK AWS (ARCHERY CENTRE) Lat: -33.83 Lon: 151.07 Height: 4.0 m
Data from the previous 72 hours. | See also: Recent months at Sydney Olympic Park
Date/Time
EST
Tmp

°C
App
Tmp
°C
Dew
Point
°C
Rel
Hum
%
Delta-T

°C
Wind Press
QNH
hPa
Press
MSL
hPa
Rain
since
9 am
mm
Dir
 
Spd
km/h
Gust
km/h
Spd
kts
Gust
kts
30/09:30pm 12.5 10.5 7.2 70 2.6 WNW 7 11 4 6 - - 0.0
30/09:00pm 13.7 11.8 7.5 66 3.0 SSW 7 13 4 7 - - 0.0
30/08:30pm 14.2 11.2 7.5 64 3.3 S 13 20 7 11 - - 0.0
30/08:00pm 14.0 10.9 7.1 63 3.4 SSE 13 22 7 12 - - 0.0
30/07:30pm 14.1 11.3 6.9 62 3.5 SSE 11 19 6 10 - - 0.0
30/07:00pm 13.8 11.4 6.9 63 3.3 SSE 9 15 5 8 - - 0.0
30/06:30pm 13.6 11.1 6.7 63 3.3 SSE 9 15 5 8 - - 0.0
30/06:00pm 14.0 11.1 6.4 60 3.6 SSE 11 17 6 9 - - 0.0
30/05:30pm 14.5 11.1 6.1 57 4.0 SSE 13 22 7 12 - - 0.0
30/05:00pm 15.0 11.4 6.6 57 4.1 SSE 15 26 8 14 - - 0.0
30/04:30pm 15.5 11.5 6.8 56 4.3 SSE 17 24 9 13 - - 0.0
30/04:00pm 15.9 12.2 6.3 53 4.7 SSE 15 24 8 13 - - 0.0
30/03:30pm 16.7 12.7 6.8 52 4.9 SE 17 20 9 11 - - 0.0
30/03:00pm 17.0 13.4 6.8 51 5.0 SE 15 20 8 11 - - 0.0
30/02:30pm 17.0 12.9 6.2 49 5.3 ESE 17 26 9 14 - - 0.0
30/02:00pm 17.0 13.2 5.6 47 5.5 SSE 15 22 8 12 - - 0.0
30/01:30pm 17.4 14.8 6.0 47 5.6 SSW 9 17 5 9 - - 0.0
30/01:00pm 17.5 13.1 6.4 48 5.5 SE 19 26 10 14 - - 0.0
30/12:30pm 16.9 13.2 4.3 43 5.9 SSE 13 26 7 14 - - 0.0
30/12:00pm 17.3 14.3 5.9 47 5.5 SE 11 19 6 10 - - 0.0
30/11:30am 16.3 13.5 5.0 47 5.4 SSE 9 17 5 9 - - 0.0
30/11:00am 15.7 12.8 4.7 48 5.2 WSW 9 19 5 10 - - 0.0
30/10:30am 15.6 13.1 4.9 49 5.0 W 7 17 4 9 - - 0.0
30/10:00am 14.6 11.6 4.3 50 4.8 W 9 15 5 8 - - 0.0
30/09:30am 13.3 10.4 4.7 56 4.0 W 9 15 5 8 - - 0.0
30/09:00am 12.3 8.9 3.8 56 3.8 W 11 20 6 11 - - 0.0
30/08:30am 11.0 7.1 3.3 59 3.4 W 13 20 7 11 - - 0.0
30/08:00am 10.3 7.2 3.8 64 2.9 W 9 13 5 7 - - 0.0
30/07:30am 8.6 6.0 4.4 75 1.8 WNW 7 13 4 7 - - 0.0
30/07:00am 6.1 3.5 4.1 87 0.9 WNW 7 11 4 6 - - 0.0
30/06:30am 5.4 2.3 3.6 88 0.8 WNW 9 11 5 6 - - 0.0
30/06:00am 5.4 2.6 3.1 85 0.9 WNW 7 9 4 5 - - 0.0
30/05:30am 6.0 3.4 3.2 82 1.2 WNW 6 9 3 5 - - 0.0
30/05:00am 6.4 3.6 3.4 81 1.3 WNW 7 11 4 6 - - 0.0
30/04:30am 6.8 4.0 3.1 77 1.5 WNW 7 11 4 6 - - 0.0
30/04:00am 6.6 3.9 3.6 81 1.3 WNW 7 13 4 7 - - 0.0
30/03:30am 6.6 4.0 3.2 79 1.4 WNW 6 11 3 6 - - 0.0
30/03:00am 6.9 4.8 3.7 80 1.4 WNW 4 9 2 5 - - 0.0
30/02:30am 6.8 4.3 3.8 81 1.3 WNW 6 9 3 5 - - 0.0
30/02:00am 6.6 5.0 4.3 85 1.0 WNW 2 7 1 4 - - 0.0
30/01:30am 7.2 5.9 4.2 81 1.3 CALM 0 0 0 0 - - 0.0
30/01:00am 7.9 6.1 3.4 73 1.9 W 2 6 1 3 - - 0.0
30/12:30am 8.3 6.2 3.8 73 1.9 WNW 4 7 2 4 - - 0.0
30/12:00am 8.9 7.1 3.7 70 2.3 WSW 2 7 1 4 - - 0.0
 
Date/Time
EST
Tmp

°C
App
Tmp
°C
Dew
Point
°C
Rel
Hum
%
Delta-T

°C
Wind Press
QNH
hPa
Press
MSL
hPa
Rain
since
9 am
mm
Dir
 
Spd
km/h
Gust
km/h
Spd
kts
Gust
kts
29/11:30pm 10.4 7.5 2.7 59 3.3 WSW 7 11 4 6 - - 0.0
29/11:00pm 10.7 7.9 3.0 59 3.3 WSW 7 17 4 9 - - 0.0
29/10:30pm 11.1 8.3 2.9 57 3.6 SW 7 9 4 5 - - 0.0
29/10:00pm 11.5 8.3 3.3 57 3.6 SW 9 13 5 7 - - 0.0
29/09:30pm 9.7 8.6 5.3 74 2.0 CALM 0 7 0 4 - - 0.0
29/09:00pm 11.0 9.8 4.5 64 2.9 CALM 0 9 0 5 - - 0.0
29/08:30pm 13.1 9.9 2.9 50 4.5 WSW 9 15 5 8 - - 0.0
29/08:00pm 12.5 10.1 5.2 61 3.4 SW 7 15 4 8 - - 0.0
29/07:30pm 11.6 10.1 8.6 82 1.5 W 6 7 3 4 - - 0.0
29/07:00pm 12.1 11.6 8.0 76 2.0 CALM 0 0 0 0 - - 0.0
29/06:30pm 13.6 12.7 7.6 67 2.9 E 2 6 1 3 - - 0.0
29/06:00pm 14.5 12.4 6.6 59 3.8 SE 7 13 4 7 - - 0.0
29/05:30pm 16.5 13.4 3.6 42 6.0 S 9 17 5 9 - - 0.0
29/05:00pm 17.8 14.0 3.7 39 6.6 SSW 13 20 7 11 - - 0.0
29/04:30pm 19.0 16.1 4.4 38 7.0 W 9 15 5 8 - - 0.0
29/04:00pm 19.0 16.6 6.8 45 6.1 WNW 9 13 5 7 - - 0.0
29/03:30pm 19.3 17.0 5.7 41 6.7 W 7 13 4 7 - - 0.0
29/03:00pm 18.8 16.5 4.9 40 6.7 WSW 6 9 3 5 - - 0.0
29/02:30pm 18.5 15.6 4.7 40 6.6 SW 9 17 5 9 - - 0.0
29/02:00pm 18.1 14.3 3.9 39 6.7 SW 13 19 7 10 - - 0.0
29/01:30pm 19.1 15.9 5.2 40 6.8 W 11 20 6 11 - - 0.0
29/01:00pm 18.8 15.8 6.0 43 6.3 WNW 11 20 6 11 - - 0.0
29/12:30pm 18.1 15.0 5.7 44 6.0 WSW 11 19 6 10 - - 0.0
29/12:00pm 17.4 14.1 4.7 43 6.0 W 11 20 6 11 - - 0.0
29/11:30am 17.3 14.6 5.6 46 5.7 WNW 9 19 5 10 - - 0.0
29/11:00am 16.6 13.7 6.4 51 5.0 W 11 19 6 10 - - 0.0
29/10:30am 16.8 14.6 7.7 55 4.6 NW 9 15 5 8 - - 0.0
29/10:00am 15.3 13.6 7.6 60 3.8 WNW 6 11 3 6 - - 0.0
29/09:30am 14.4 12.5 7.5 63 3.4 WNW 7 11 4 6 - - 0.0
29/09:00am 13.8 11.6 8.0 68 2.9 WNW 9 13 5 7 - - 0.0
29/08:30am 12.6 10.6 8.5 76 2.0 WNW 9 13 5 7 - - 0.0
29/08:00am 10.9 9.0 9.2 89 0.8 WNW 9 13 5 7 - - 0.0
29/07:30am 8.9 7.5 8.8 99 0.0 W 6 9 3 5 - - 0.0
29/07:00am 7.0 6.3 6.9 99 0.0 CALM 0 0 0 0 - - 0.0
29/06:30am 6.5 5.7 6.4 99 0.0 CALM 0 0 0 0 - - 0.0
29/06:00am 6.2 5.3 5.9 98 0.1 CALM 0 0 0 0 - - 0.0
29/05:30am 6.2 5.2 5.8 97 0.2 CALM 0 0 0 0 - - 0.0
29/05:00am 6.4 5.5 6.0 97 0.2 CALM 0 0 0 0 - - 0.0
29/04:30am 7.1 6.4 6.8 98 0.1 CALM 0 0 0 0 - - 0.0
29/04:00am 7.2 6.5 6.8 97 0.2 CALM 0 0 0 0 - - 0.0
29/03:30am 7.5 6.1 7.1 97 0.2 NW 4 7 2 4 - - 0.0
29/03:00am 7.7 6.7 7.4 98 0.1 WNW 2 6 1 3 - - 0.0
29/02:30am 7.6 7.0 7.3 98 0.1 CALM 0 0 0 0 - - 0.0
29/02:00am 7.9 7.3 7.6 98 0.1 CALM 0 0 0 0 - - 0.0
29/01:30am 8.1 7.6 7.7 97 0.2 CALM 0 0 0 0 - - 0.0
29/01:00am 8.1 7.6 7.7 97 0.2 CALM 0 0 0 0 - - 0.0
29/12:30am 8.5 8.0 7.9 96 0.3 CALM 0 0 0 0 - - 0.0
29/12:00am 8.9 8.5 8.3 96 0.3 CALM 0 0 0 0 - - 0.0
 
Date/Time
EST
Tmp

°C
App
Tmp
°C
Dew
Point
°C
Rel
Hum
%
Delta-T

°C
Wind Press
QNH
hPa
Press
MSL
hPa
Rain
since
9 am
mm
Dir
 
Spd
km/h
Gust
km/h
Spd
kts
Gust
kts
28/11:30pm 9.2 8.8 8.4 95 0.4 CALM 0 0 0 0 - - 0.0
28/11:00pm 9.6 9.3 8.8 95 0.4 CALM 0 0 0 0 - - 0.0
28/10:30pm 9.8 9.5 8.7 93 0.5 CALM 0 0 0 0 - - 0.0
28/10:00pm 10.3 10.1 8.9 91 0.7 CALM 0 0 0 0 - - 0.0
28/09:30pm 10.9 10.8 9.5 91 0.7 CALM 0 0 0 0 - - 0.0
28/09:00pm 11.4 11.3 9.5 88 1.0 CALM 0 0 0 0 - - 0.0
28/08:30pm 12.1 12.2 10.0 87 1.1 CALM 0 0 0 0 - - 0.0
28/08:00pm 12.4 12.3 9.6 83 1.4 CALM 0 0 0 0 - - 0.0
28/07:30pm 13.5 13.3 9.2 75 2.2 CALM 0 4 0 2 - - 0.0
28/07:00pm 15.1 13.6 8.6 65 3.3 S 6 11 3 6 - - 0.0
28/06:30pm 15.3 13.6 8.5 64 3.4 SSE 7 15 4 8 - - 0.0
28/06:00pm 15.7 13.8 8.9 64 3.5 SE 9 13 5 7 - - 0.0
28/05:30pm 16.1 14.2 9.1 63 3.6 SE 9 15 5 8 - - 0.0
28/05:00pm 16.6 13.9 8.8 60 4.0 SE 13 20 7 11 - - 0.0
28/04:30pm 17.4 15.2 8.0 54 4.8 SE 9 15 5 8 - - 0.0
28/04:00pm 18.0 16.1 6.5 47 5.7 SSW 6 11 3 6 - - 0.0
28/03:30pm 18.3 16.2 6.8 47 5.7 WSW 7 15 4 8 - - 0.0
28/03:00pm 18.5 15.2 6.4 45 6.0 WSW 13 20 7 11 - - 0.0
28/02:30pm 19.1 15.8 6.2 43 6.4 SW 13 22 7 12 - - 0.0
28/02:00pm 18.7 16.2 6.5 45 6.1 SSW 9 13 5 7 - - 0.0
28/01:30pm 18.4 14.6 5.9 44 6.1 SW 15 22 8 12 - - 0.0
28/01:00pm 18.8 15.9 6.3 44 6.2 WSW 11 17 6 9 - - 0.0
28/12:30pm 19.0 15.5 7.1 46 6.0 W 15 26 8 14 - - 0.0
28/12:00pm 18.3 14.6 6.5 46 5.9 SW 15 26 8 14 - - 0.0
28/11:30am 17.5 13.7 5.8 46 5.7 WSW 15 24 8 13 - - 0.0
28/11:00am 17.3 13.7 6.8 50 5.2 W 15 28 8 15 - - 0.0
28/10:30am 16.6 12.9 6.4 51 5.0 W 15 24 8 13 - - 0.0
28/10:00am 16.2 12.4 5.8 50 5.0 WSW 15 26 8 14 - - 0.0
28/09:30am 15.7 11.9 5.9 52 4.7 WSW 15 28 8 15 - - 0.0
28/09:00am 14.9 10.6 5.1 52 4.6 W 17 32 9 17 - - 0.0
28/08:30am 15.0 11.9 7.1 59 3.9 NW 13 22 7 12 - - 0.0
28/08:00am 13.6 10.3 6.2 61 3.5 WNW 13 20 7 11 - - 0.0
28/07:30am 12.1 9.2 6.6 69 2.6 NW 11 17 6 9 - - 0.0
28/07:00am 9.8 6.8 5.8 76 1.8 NW 11 13 6 7 - - 0.0
28/06:30am 9.3 6.2 5.7 78 1.6 NW 11 15 6 8 - - 0.0
28/06:00am 9.4 5.9 5.6 77 1.7 NW 13 17 7 9 - - 0.0
28/05:30am 9.0 5.9 5.7 80 1.5 NW 11 17 6 9 - - 0.0
28/05:00am 9.1 5.7 5.7 79 1.5 WNW 13 17 7 9 - - 0.0
28/04:30am 9.2 6.2 5.8 79 1.6 WNW 11 17 6 9 - - 0.0
28/04:00am 9.2 5.8 5.8 79 1.6 NW 13 17 7 9 - - 0.0
28/03:30am 8.9 5.6 6.2 83 1.2 NW 13 17 7 9 - - 0.0
28/03:00am 8.1 5.5 6.1 87 0.9 NW 9 13 5 7 - - 0.0
28/02:30am 8.0 5.8 6.3 89 0.8 NW 7 11 4 6 - - 0.0
28/02:00am 8.0 5.7 5.8 86 1.0 NW 7 11 4 6 - - 0.0
28/01:30am 9.0 6.4 6.1 82 1.3 NW 9 13 5 7 - - 0.0
28/01:00am 9.4 6.8 6.3 81 1.4 NNW 9 13 5 7 - - 0.0
28/12:30am 9.7 6.8 6.4 80 1.5 NNW 11 17 6 9 - - 0.0
28/12:00am 9.6 7.4 6.3 80 1.5 NW 7 11 4 6 - - 0.0
 
Date/Time
EST
Tmp

°C
App
Tmp
°C
Dew
Point
°C
Rel
Hum
%
Delta-T

°C
Wind Press
QNH
hPa
Press
MSL
hPa
Rain
since
9 am
mm
Dir
 
Spd
km/h
Gust
km/h
Spd
kts
Gust
kts
27/11:30pm 10.6 7.7 6.4 75 2.0 NW 11 15 6 8 - - 0.0
27/11:00pm 10.3 8.3 7.0 80 1.6 NW 7 11 4 6 - - 0.0
27/10:30pm 11.3 9.7 6.4 72 2.3 WNW 4 9 2 5 - - 0.0
27/10:00pm 12.5 9.6 6.5 67 2.9 NW 11 20 6 11 - - 0.0

Latest Capital City Observations: Canberra | Sydney | Melbourne | Brisbane | Adelaide | Perth | Hobart | Darwin

Other Formats:

Comma delimited format used in spreadsheet applications
http://www.bom.gov.au/fwo/IDN60901/IDN60901.95765.axf

JavaScript Object Notation format (JSON) in row-major order
http://www.bom.gov.au/fwo/IDN60901/IDN60901.95765.json